Dades meteomassalio
Diari Summary for Maig 11, 2017 Units:  Metric    English   Both
« Previous Day
Next Day »
Diari Semanal Mensual Anual Personalitzat
  Maxima: Minima: Mijana:
Temperatura: -17.8 °C -9.5 °C -7.3 °C
Rosada: -17.8 °C -13.7 °C -11.6 °C
Humitat: Humidity % 35 % 64 %
Velocitat del vent: 0 km/h 0 km/h 15.3 km/h
Racha vent: 0 km/h - -
Vent:- - WSW
Pressio: 0 hPa 33788.9 hPa -
Pluja: 76.2 mm    
Historical Graphs
 
 
Tabular Data for Maig 11, 2017
Time Temperature Dew Point Pressure Wind Wind Speed Wind Gust Humidity Rainfall Rate (Hourly) solar Conditions
-17.8 °C -17.8 °C 0 hPa Calm     Humidity % 0 mm SolarRadiationWatts/m^2 W/m2 Conditions
00:02 -8.7 °C -10.1 °C 33890.5 hPa Calm     85 % 0 mm 0.0 W/m2 RA
00:07 -8.8 °C -10.2 °C 33890.5 hPa Calm     85 % 0 mm 0.0 W/m2 CLR
00:12 -8.8 °C -10.2 °C 33890.5 hPa ESE 10.3 km/h 10.3 km/h 85 % 0 mm 0.0 W/m2 CLR
00:17 -8.8 °C -10.1 °C 33890.5 hPa ESE 12.9 km/h 12.9 km/h 86 % 0 mm 0.0 W/m2 CLR
00:22 -8.8 °C -10.1 °C 33890.5 hPa ESE 9 km/h 9 km/h 86 % 0 mm 0.0 W/m2 CLR
00:27 -8.8 °C -10.1 °C 33890.5 hPa East 6 km/h   86 % 0 mm 0.0 W/m2 CLR
00:32 -8.8 °C -10.2 °C 33890.5 hPa ESE 17.9 km/h 17.9 km/h 86 % 0 mm 0.0 W/m2 CLR
00:37 -8.8 °C -10.2 °C 33880.3 hPa Calm     86 % 0 mm 0.0 W/m2 CLR
00:42 -8.9 °C -10.1 °C 33880.3 hPa Calm     87 % 0 mm 0.0 W/m2 CLR
00:47 -8.9 °C -10.1 °C 33880.3 hPa Calm     87 % 0 mm 0.0 W/m2 CLR
00:52 -8.9 °C -10.1 °C 33890.5 hPa Calm     87 % 0 mm 0.0 W/m2 CLR
00:57 -8.9 °C -10.1 °C 33900.6 hPa Calm     87 % 0 mm 0.0 W/m2 CLR
01:02 -8.8 °C -10.2 °C 33890.5 hPa SE 26.9 km/h 26.9 km/h 86 % 0 mm 0.0 W/m2 CLR
01:07 -8.8 °C -10.2 °C 33890.5 hPa ESE 17.9 km/h 17.9 km/h 85 % 0 mm 0.0 W/m2 CLR
01:12 -8.8 °C -10.3 °C 33890.5 hPa Calm     84 % 0 mm 0.0 W/m2 CLR
01:17 -8.8 °C -10.3 °C 33890.5 hPa Calm     84 % 0 mm 0.0 W/m2 CLR
01:22 -8.8 °C -10.3 °C 33890.5 hPa Calm     84 % 0 mm 0.0 W/m2 CLR
01:27 -8.7 °C -10.2 °C 33890.5 hPa Calm     84 % 7.62 mm 0.0 W/m2 RA
01:32 -8.8 °C -10.2 °C 33880.3 hPa Calm     85 % 7.62 mm 0.0 W/m2
01:37 -8.8 °C -10.2 °C 33880.3 hPa Calm     86 % 7.62 mm 0.0 W/m2 CLR
01:42 -8.9 °C -10.1 °C 33890.5 hPa Calm     87 % 7.62 mm 0.0 W/m2 CLR
01:48 -8.9 °C -10.1 °C 33890.5 hPa SE 15.6 km/h 15.6 km/h 87 % 12.7 mm 0.0 W/m2 RA
01:53 -8.9 °C -10.2 °C 33890.5 hPa SE 20.9 km/h 20.9 km/h 87 % 12.7 mm 0.0 W/m2 RA
01:58 -9 °C -10.2 °C 33890.5 hPa SE 20.9 km/h 20.9 km/h 87 % 12.7 mm 0.0 W/m2 CLR
02:03 -9 °C -10.1 °C 33890.5 hPa SSE 18.2 km/h 18.2 km/h 88 % 12.7 mm 0.0 W/m2 CLR
02:08 -9 °C -10.1 °C 33900.6 hPa SSE 23.3 km/h 23.3 km/h 88 % 20.32 mm 0.0 W/m2 RA
02:13 -9.1 °C -10.1 °C 33890.5 hPa SE 26.9 km/h 26.9 km/h 89 % 33.02 mm 0.0 W/m2 RA
02:18 -9.1 °C -10.2 °C 33890.5 hPa SE 26.9 km/h 26.9 km/h 89 % 33.02 mm 0.0 W/m2 CLR
02:23 -9.2 °C -10.2 °C 33890.5 hPa SE 26.9 km/h 26.9 km/h 89 % 38.1 mm 0.0 W/m2 RA
02:28 -9.2 °C -10.1 °C 33890.5 hPa SE 20.8 km/h 20.8 km/h 90 % 38.1 mm 0.0 W/m2 RA
02:33 -9.2 °C -10.1 °C 33890.5 hPa SSE 9 km/h   90 % 38.1 mm 0.0 W/m2
02:38 -9.2 °C -10.1 °C 33890.5 hPa SE 15.6 km/h 15.6 km/h 90 % 38.1 mm 0.0 W/m2 CLR
02:43 -9.3 °C -10.2 °C 33880.3 hPa SE 17.9 km/h 17.9 km/h 90 % 38.1 mm 0.0 W/m2 CLR
02:48 -9.3 °C -10.1 °C 33880.3 hPa Calm     91 % 38.1 mm 0.0 W/m2 CLR
02:54 -9.3 °C -10.1 °C 33880.3 hPa SSE 15 km/h 15 km/h 91 % 33.02 mm 0.0 W/m2 CLR
02:59 -9.3 °C -10.2 °C 33880.3 hPa Calm     90 % 33.02 mm 0.0 W/m2 CLR
03:04 -9.3 °C -10.2 °C 33866.8 hPa SE 23.8 km/h 23.8 km/h 90 % 33.02 mm 0.0 W/m2 CLR
03:09 -9.3 °C -10.2 °C 33856.6 hPa SSE 17.9 km/h 17.9 km/h 90 % 25.4 mm 0.0 W/m2 CLR
03:14 -9.3 °C -10.2 °C 33866.8 hPa Calm     90 % 20.32 mm 0.0 W/m2 RA
03:20 -9.3 °C -10.1 °C 33856.6 hPa Calm     91 % 12.7 mm 0.0 W/m2
03:25 -9.3 °C -10.1 °C 33856.6 hPa Calm     91 % 12.7 mm 0.0 W/m2 CLR
03:30 -9.3 °C -10.1 °C 33856.6 hPa SSE 6 km/h 6 km/h 91 % 7.62 mm 0.0 W/m2 CLR
03:36 -9.3 °C -10.1 °C 33843.1 hPa Calm     91 % 7.62 mm 0.0 W/m2 CLR
03:41 -9.3 °C -10.1 °C 33856.6 hPa Calm     91 % 12.7 mm 0.0 W/m2 RA
03:46 -9.3 °C -10.1 °C 33843.1 hPa Calm     91 % 12.7 mm 0.0 W/m2 CLR
03:51 -9.3 °C -10.1 °C 33843.1 hPa Calm     91 % 12.7 mm 0.0 W/m2 RA
03:56 -9.3 °C -10.1 °C 33843.1 hPa Calm     91 % 12.7 mm 0.0 W/m2 CLR
04:01 -9.3 °C -10.1 °C 33832.9 hPa Calm     91 % 12.7 mm 0.0 W/m2 CLR
04:06 -9.3 °C -10.1 °C 33832.9 hPa Calm     91 % 12.7 mm 0.0 W/m2 CLR
04:11 -9.3 °C -10.1 °C 33832.9 hPa Calm     91 % 12.7 mm 0.0 W/m2 CLR
04:16 -9.3 °C -10.1 °C 33832.9 hPa Calm     91 % 12.7 mm 0.0 W/m2 CLR
04:21 -9.3 °C -10.1 °C 33832.9 hPa Calm     91 % 12.7 mm 0.0 W/m2 CLR
04:26 -9.3 °C -10.2 °C 33832.9 hPa Calm     91 % 12.7 mm 0.0 W/m2 CLR
04:31 -9.3 °C -10.1 °C 33832.9 hPa SE 10.3 km/h 10.3 km/h 91 % 12.7 mm 0.0 W/m2 CLR
04:36 -9.3 °C -10.1 °C 33822.8 hPa Calm     91 % 12.7 mm 0.0 W/m2 CLR
04:41 -9.3 °C -10.1 °C 33822.8 hPa Calm     91 % 7.62 mm 0.0 W/m2 CLR
04:46 -9.3 °C -10.1 °C 33822.8 hPa SSW 6 km/h 6 km/h 91 % 7.62 mm 0.0 W/m2 CLR
04:51 -9.3 °C -10.2 °C 33822.8 hPa Calm     91 % 0 mm 0.0 W/m2 CLR
04:56 -9.3 °C -10.2 °C 33822.8 hPa SSE 18.2 km/h 18.2 km/h 91 % 0 mm 0.0 W/m2 CLR
05:01 -9.3 °C -10.2 °C 33809.2 hPa SSE 23.8 km/h 23.8 km/h 90 % 0 mm 0.0 W/m2 CLR
05:06 -9.3 °C -10.2 °C 33822.8 hPa SE 11.9 km/h 11.9 km/h 90 % 0 mm 0.0 W/m2 CLR
05:11 -9.3 °C -10.2 °C 33809.2 hPa SSE 17.9 km/h 17.9 km/h 90 % 0 mm 0.0 W/m2 CLR
05:16 -9.3 °C -10.2 °C 33809.2 hPa SE 17.9 km/h 17.9 km/h 90 % 0 mm 0.0 W/m2 CLR
05:21 -9.3 °C -10.2 °C 33809.2 hPa Calm     90 % 0 mm 0.0 W/m2 CLR
05:26 -9.3 °C -10.2 °C 33809.2 hPa SSW 15 km/h 15 km/h 90 % 0 mm 0.0 W/m2 CLR
05:31 -9.3 °C -10.2 °C 33809.2 hPa South 3.1 km/h   90 % 0 mm 0.0 W/m2 CLR
05:36 -9.3 °C -10.2 °C 33809.2 hPa Calm     90 % 0 mm 0.0 W/m2 CLR
05:41 -9.3 °C -10.2 °C 33799.1 hPa SSE 18.2 km/h 18.2 km/h 90 % 0 mm 0.0 W/m2 CLR
05:46 -9.3 °C -10.3 °C 33799.1 hPa SSE 20.9 km/h 20.9 km/h 89 % 0 mm 0.0 W/m2 CLR
05:51 -9.3 °C -10.3 °C 33799.1 hPa SE 18.2 km/h 18.2 km/h 89 % 0 mm 0.0 W/m2 CLR
05:56 -9.3 °C -10.2 °C 33809.2 hPa South 17.9 km/h 17.9 km/h 89 % 0 mm 0.0 W/m2 CLR
06:01 -9.3 °C -10.2 °C 33809.2 hPa Calm     89 % 0 mm 0.0 W/m2 CLR
06:06 -9.3 °C -10.3 °C 33809.2 hPa Calm     89 % 0 mm 0.0 W/m2 CLR
06:11 -9.3 °C -10.3 °C 33809.2 hPa South 11.9 km/h 11.9 km/h 89 % 0 mm 0.0 W/m2 CLR
06:16 -9.3 °C -10.3 °C 33809.2 hPa SSE 20.9 km/h 20.9 km/h 89 % 0 mm 0.0 W/m2 CLR
06:21 -9.3 °C -10.2 °C 33809.2 hPa Calm     89 % 0 mm 0.0 W/m2 CLR
06:26 -9.3 °C -10.2 °C 33809.2 hPa South 5.1 km/h 5.1 km/h 89 % 0 mm 0.0 W/m2 CLR
06:31 -9.3 °C -10.2 °C 33822.8 hPa Calm     89 % 0 mm 0.0 W/m2 CLR
06:36 -9.3 °C -10.3 °C 33822.8 hPa Calm     89 % 0 mm 0.0 W/m2 OVC
06:41 -9.3 °C -10.3 °C 33822.8 hPa Calm     89 % 0 mm 0.0 W/m2 OVC
06:46 -9.3 °C -10.3 °C 33822.8 hPa Calm     89 % 0 mm 0.0 W/m2 OVC
06:51 -9.4 °C -10.3 °C 33822.8 hPa Calm     90 % 0 mm 0.0 W/m2 OVC
06:56 -9.4 °C -10.3 °C 33832.9 hPa Calm     90 % 0 mm 0.0 W/m2 OVC
07:01 -9.5 °C -10.4 °C 33832.9 hPa Calm     90 % 7.62 mm 0.0 W/m2 RA
07:06 -9.5 °C -10.4 °C 33832.9 hPa Calm     90 % 12.7 mm 0.0 W/m2 RA
07:11 -9.5 °C -10.4 °C 33832.9 hPa Calm     90 % 12.7 mm 0.0 W/m2 CLR
07:16 -9.5 °C -10.4 °C 33832.9 hPa Calm     90 % 12.7 mm 11.0 W/m2 BKN
07:21 -9.5 °C -10.4 °C 33832.9 hPa Calm     90 % 12.7 mm 19.0 W/m2 RA
07:26 -9.5 °C -10.4 °C 33799.1 hPa SSE 29.8 km/h 29.8 km/h 90 % 12.7 mm 19.0 W/m2 BKN
07:31 -9.3 °C -10.3 °C 33799.1 hPa SSE 29.8 km/h 29.8 km/h 89 % 12.7 mm 19.0 W/m2 BKN
07:36 -9.3 °C -10.4 °C 33809.2 hPa SE 11.9 km/h 11.9 km/h 88 % 12.7 mm 18.0 W/m2 BKN
07:41 -9.4 °C -10.4 °C 33799.1 hPa SE 9 km/h 9 km/h 89 % 12.7 mm 23.0 W/m2 BKN
07:46 -9.5 °C -10.4 °C 33799.1 hPa SSE 17.9 km/h 17.9 km/h 89 % 12.7 mm 21.0 W/m2 BKN
07:51 -9.5 °C -10.4 °C 33799.1 hPa SSE 20.9 km/h 20.9 km/h 90 % 12.7 mm 49.0 W/m2 BKN
07:56 -9.5 °C -10.4 °C 33788.9 hPa South 20.9 km/h 20.9 km/h 89 % 12.7 mm 102.0 W/m2 SCT
08:01 -9.4 °C -10.4 °C 33788.9 hPa South 15 km/h   89 % 12.7 mm 107.0 W/m2 FEW
08:06 -9.3 °C -10.3 °C 33799.1 hPa Calm     89 % 7.62 mm 130.0 W/m2 CLR
08:12 -9.3 °C -10.3 °C 33799.1 hPa Calm     89 % 7.62 mm 109.0 W/m2 CLR
08:17 -9.3 °C -10.2 °C 33809.2 hPa Calm     89 % 7.62 mm 118.0 W/m2 CLR
08:22 -9.2 °C -10.2 °C 33809.2 hPa Calm     89 % 0 mm 111.0 W/m2 CLR
08:27 -9.2 °C -10.3 °C 33809.2 hPa WSW 12.9 km/h 12.9 km/h 88 % 0 mm 93.0 W/m2 CLR
08:32 -9.1 °C -10.3 °C 33822.8 hPa Calm     87 % 0 mm 56.0 W/m2 FEW
08:37 -9.1 °C -10.2 °C 33809.2 hPa SW 6 km/h   87 % 0 mm 70.0 W/m2 FEW
08:42 -9 °C -10.3 °C 33822.8 hPa Calm     86 % 0 mm 88.0 W/m2 FEW
08:47 -9 °C -10.3 °C 33822.8 hPa Calm     86 % 0 mm 72.0 W/m2 FEW
08:52 -8.9 °C -10.2 °C 33822.8 hPa Calm     86 % 0 mm 70.0 W/m2 FEW
08:57 -8.9 °C -10.2 °C 33822.8 hPa Calm     86 % 0 mm 76.0 W/m2 FEW
09:02 -8.9 °C -10.2 °C 33822.8 hPa Calm     86 % 0 mm 74.0 W/m2 FEW
09:07 -8.9 °C -10.2 °C 33822.8 hPa Calm     86 % 0 mm 88.0 W/m2 FEW
09:12 -8.9 °C -10.3 °C 33822.8 hPa Calm     85 % 0 mm 83.0 W/m2 FEW
09:17 -8.9 °C -10.4 °C 33822.8 hPa Calm     84 % 0 mm 100.0 W/m2 CLR
09:22 -8.8 °C -10.4 °C 33822.8 hPa Calm     83 % 0 mm 120.0 W/m2 CLR
09:27 -8.8 °C -10.4 °C 33822.8 hPa Calm     83 % 0 mm 139.0 W/m2 CLR
09:32 -8.6 °C -9.8 °C 33822.8 hPa Calm     87 % 0 mm 439.0 W/m2 CLR
09:37 -8.4 °C -9.5 °C 33822.8 hPa Calm     88 % 0 mm 394.0 W/m2 CLR
09:42 -8.2 °C -9.5 °C 33822.8 hPa Calm     86 % 0 mm 88.0 W/m2 FEW
09:47 -8 °C -9.8 °C 33822.8 hPa Calm     82 % 0 mm 476.0 W/m2 FEW
09:52 -7.9 °C -9.8 °C 33822.8 hPa Calm     80 % 0 mm 508.0 W/m2 CLR
09:57 -7.7 °C -9.9 °C 33822.8 hPa Calm     78 % 0 mm 533.0 W/m2 CLR
10:02 -7.6 °C -9.8 °C 33822.8 hPa Calm     77 % 0 mm 536.0 W/m2 CLR
10:07 -7.4 °C -10.2 °C 33822.8 hPa Calm     73 % 0 mm 550.0 W/m2 CLR
10:12 -7.3 °C -10.6 °C 33822.8 hPa Calm     69 % 0 mm 566.0 W/m2 CLR
10:17 -7.2 °C -10.9 °C 33822.8 hPa Calm     65 % 0 mm 584.0 W/m2 CLR
10:22 -7.1 °C -10.7 °C 33832.9 hPa WSW 15 km/h 15 km/h 66 % 0 mm 642.0 W/m2 CLR
10:27 -6.9 °C -11.4 °C 33832.9 hPa West 17.9 km/h 17.9 km/h 60 % 0 mm 671.0 W/m2 CLR
10:32 -6.9 °C -11.3 °C 33832.9 hPa WSW 15.6 km/h 15.6 km/h 60 % 0 mm 281.0 W/m2 CLR
10:37 -6.8 °C -11.5 °C 33832.9 hPa SSW 9 km/h 9 km/h 58 % 0 mm 703.0 W/m2 CLR
10:42 -6.5 °C -10.8 °C 33822.8 hPa Calm     61 % 0 mm 765.0 W/m2 CLR
10:47 -6.6 °C -11.7 °C 33832.9 hPa West 11.9 km/h 11.9 km/h 56 % 0 mm 118.0 W/m2 CLR
10:52 -6.7 °C -11.3 °C 33832.9 hPa West 15 km/h 15 km/h 59 % 0 mm 262.0 W/m2 CLR
10:57 -6.6 °C -11.3 °C 33832.9 hPa WSW 15.6 km/h 15.6 km/h 58 % 0 mm 202.0 W/m2 CLR
11:02 -6.6 °C -11.5 °C 33832.9 hPa SW 15 km/h 15 km/h 57 % 0 mm 248.0 W/m2 CLR
11:07 -6.4 °C -11.4 °C 33822.8 hPa WSW 32.8 km/h 32.8 km/h 56 % 0 mm 782.0 W/m2 CLR
11:12 -6.3 °C -11.4 °C 33822.8 hPa WSW 11.9 km/h 11.9 km/h 56 % 0 mm 352.0 W/m2 CLR
11:17 -6.3 °C -11.3 °C 33822.8 hPa South 12.9 km/h 12.9 km/h 57 % 0 mm 362.0 W/m2 CLR
11:22 -6.4 °C -11.8 °C 33822.8 hPa SW 20.9 km/h 20.9 km/h 54 % 0 mm 306.0 W/m2 CLR
11:27 -6.4 °C -11.9 °C 33822.8 hPa South 12.9 km/h 12.9 km/h 53 % 0 mm 246.0 W/m2 CLR
11:32 -6.4 °C -11.5 °C 33822.8 hPa SW 7.7 km/h 7.7 km/h 56 % 0 mm 216.0 W/m2 CLR
11:38 -6.5 °C -11.8 °C 33822.8 hPa SW 17.9 km/h 17.9 km/h 54 % 0 mm 220.0 W/m2 CLR
11:43 -6.5 °C -11.8 °C 33822.8 hPa SW 10.3 km/h 10.3 km/h 54 % 0 mm 253.0 W/m2 CLR
11:48 -6.4 °C -12.3 °C 33822.8 hPa West 32.8 km/h 32.8 km/h 51 % 0 mm 318.0 W/m2 CLR
11:53 -6.4 °C -12.4 °C 33822.8 hPa West 23.8 km/h 23.8 km/h 50 % 0 mm 330.0 W/m2 CLR
11:58 -6.3 °C -12.2 °C 33822.8 hPa West 23.3 km/h 23.3 km/h 51 % 0 mm 320.0 W/m2 CLR
12:03 -6.1 °C -11.9 °C 33822.8 hPa SW 17.9 km/h 17.9 km/h 51 % 0 mm 320.0 W/m2 CLR
12:08 -5.9 °C -12.3 °C 33832.9 hPa West 20.9 km/h 20.9 km/h 48 % 0 mm 378.0 W/m2 CLR
12:13 -6.1 °C -12.6 °C 33832.9 hPa WNW 20.9 km/h 20.9 km/h 47 % 0 mm 292.0 W/m2 CLR
12:18 -6.1 °C -12.6 °C 33832.9 hPa West 32.8 km/h 32.8 km/h 47 % 0 mm 223.0 W/m2 CLR
12:23 -6.2 °C -12.7 °C 33832.9 hPa West 44.7 km/h 44.7 km/h 47 % 0 mm 221.0 W/m2 CLR
12:28 -6.3 °C -12.8 °C 33843.1 hPa NW 56.6 km/h 56.6 km/h 47 % 0 mm 258.0 W/m2 CLR
12:33 -6.7 °C -11.7 °C 33856.6 hPa NW 68.6 km/h 68.6 km/h 56 % 0 mm 339.0 W/m2 CLR
12:38 -7.1 °C -11.8 °C 33843.1 hPa WNW 50.7 km/h 50.7 km/h 58 % 0 mm 1076.0 W/m2 CLR
12:43 -7.2 °C -11.4 °C 33843.1 hPa WNW 47.6 km/h 47.6 km/h 61 % 0 mm 1014.0 W/m2 CLR
12:48 -7.1 °C -11.1 °C 33843.1 hPa NW 32.8 km/h 32.8 km/h 63 % 0 mm 1041.0 W/m2 CLR
12:53 -6.9 °C -11.5 °C 33843.1 hPa NNW 29.8 km/h 29.8 km/h 59 % 0 mm 371.0 W/m2 CLR
12:58 -6.9 °C -11.6 °C 33843.1 hPa West 15 km/h 15 km/h 58 % 0 mm 369.0 W/m2 CLR
13:03 -6.8 °C -11.8 °C 33843.1 hPa WSW 17.9 km/h 17.9 km/h 56 % 0 mm 661.0 W/m2 CLR
13:08 -6.6 °C -11.8 °C 33843.1 hPa WSW 11.9 km/h 11.9 km/h 55 % 0 mm 475.0 W/m2 CLR
13:13 -6.5 °C -11.8 °C 33843.1 hPa SW 23.8 km/h 23.8 km/h 54 % 0 mm 302.0 W/m2 CLR
13:18 -6.3 °C -12.1 °C 33843.1 hPa SW 38.8 km/h 38.8 km/h 51 % 0 mm 396.0 W/m2 CLR
13:23 -6.2 °C -11.8 °C 33843.1 hPa WSW 10.3 km/h 10.3 km/h 52 % 0 mm 566.0 W/m2 CLR
13:28 -6 °C -11.8 °C 33843.1 hPa West 20.9 km/h 20.9 km/h 51 % 0 mm 1048.0 W/m2 CLR
13:33 -5.8 °C -12 °C 33843.1 hPa NNW 17.9 km/h 17.9 km/h 49 % 0 mm 1185.0 W/m2 CLR
13:38 -5.7 °C -12.4 °C 33832.9 hPa WSW 15 km/h 15 km/h 46 % 0 mm 1179.0 W/m2 CLR
13:43 -5.6 °C -11.8 °C 33832.9 hPa Calm     49 % 0 mm 1185.0 W/m2 CLR
13:48 -5.4 °C -12.6 °C 33832.9 hPa NNW 29.8 km/h 29.8 km/h 44 % 0 mm 415.0 W/m2 CLR
13:53 -5.6 °C -10.8 °C 33843.1 hPa North 26.9 km/h 26.9 km/h 55 % 0 mm 415.0 W/m2 CLR
13:58 -5.6 °C -11.5 °C 33832.9 hPa Calm     51 % 0 mm 1202.0 W/m2 CLR
14:03 -5.5 °C -12.1 °C 33832.9 hPa Calm     47 % 0 mm 496.0 W/m2 CLR
14:08 -5.3 °C -11.4 °C 33832.9 hPa Calm     50 % 0 mm 1306.0 W/m2 CLR
14:13 -5.1 °C -11 °C 33832.9 hPa West 18.2 km/h 18.2 km/h 51 % 0 mm 346.0 W/m2 CLR
14:18 -5.3 °C -11.7 °C 33832.9 hPa WNW 35.7 km/h 35.7 km/h 48 % 0 mm 422.0 W/m2 CLR
14:23 -5.6 °C -11.8 °C 33843.1 hPa NW 47.6 km/h 47.6 km/h 49 % 0 mm 283.0 W/m2 CLR
14:28 -5.8 °C -11.7 °C 33843.1 hPa NW 29.8 km/h 29.8 km/h 51 % 0 mm 415.0 W/m2 CLR
14:33 -5.9 °C -11.6 °C 33843.1 hPa NW 29.8 km/h 29.8 km/h 52 % 0 mm 278.0 W/m2 CLR
14:38 -5.9 °C -12.1 °C 33843.1 hPa NNW 47.6 km/h 47.6 km/h 49 % 0 mm 322.0 W/m2 CLR
14:43 -5.8 °C -12.2 °C 33856.6 hPa North 41.7 km/h 41.7 km/h 48 % 0 mm 322.0 W/m2 CLR
14:48 -5.7 °C -12.3 °C 33856.6 hPa North 26.9 km/h 26.9 km/h 47 % 0 mm 443.0 W/m2 CLR
14:54 -5.6 °C -12.1 °C 33843.1 hPa NW 29.8 km/h 29.8 km/h 47 % 0 mm 302.0 W/m2 CLR
14:59 -5.6 °C -12.4 °C 33843.1 hPa WNW 41.7 km/h 41.7 km/h 46 % 0 mm 260.0 W/m2 CLR
15:04 -5.7 °C -12.3 °C 33843.1 hPa NW 35.7 km/h 35.7 km/h 47 % 0 mm 250.0 W/m2 CLR
15:09 -5.7 °C -12.1 °C 33843.1 hPa WNW 29.8 km/h 29.8 km/h 48 % 0 mm 313.0 W/m2 CLR
15:14 -5.5 °C -11.9 °C 33843.1 hPa NW 29.8 km/h 29.8 km/h 48 % 0 mm 497.0 W/m2 CLR
15:19 -5.4 °C -12.2 °C 33843.1 hPa West 38.8 km/h 38.8 km/h 46 % 0 mm 197.0 W/m2 CLR
15:24 -5.7 °C -12.9 °C 33843.1 hPa WNW 15 km/h 15 km/h 43 % 0 mm 190.0 W/m2 CLR
15:29 -5.7 °C -12.6 °C 33856.6 hPa WSW 29.8 km/h 29.8 km/h 45 % 0 mm 285.0 W/m2 CLR
15:34 -5.6 °C -12.6 °C 33856.6 hPa West 35.7 km/h 35.7 km/h 45 % 0 mm 265.0 W/m2 CLR
15:39 -5.6 °C -12.9 °C 33856.6 hPa West 23.8 km/h 23.8 km/h 43 % 0 mm 290.0 W/m2 CLR
15:44 -5.7 °C -12.9 °C 33843.1 hPa WSW 11.9 km/h 11.9 km/h 43 % 0 mm 250.0 W/m2 CLR
15:49 -5.6 °C -12.6 °C 33843.1 hPa WNW 11.9 km/h 11.9 km/h 45 % 0 mm 262.0 W/m2 CLR
15:54 -5.4 °C -12.5 °C 33843.1 hPa NW 15 km/h 15 km/h 44 % 0 mm 348.0 W/m2 CLR
15:59 -5.3 °C -13 °C 33843.1 hPa West 11.9 km/h 11.9 km/h 41 % 0 mm 322.0 W/m2 CLR
16:04 -5.2 °C -12.6 °C 33843.1 hPa NW 26.9 km/h 26.9 km/h 43 % 0 mm 271.0 W/m2 CLR
16:09 -5.4 °C -12.9 °C 33843.1 hPa NW 29.8 km/h 29.8 km/h 42 % 0 mm 334.0 W/m2 CLR
16:14 -5.3 °C -12.8 °C 33843.1 hPa NE 12.9 km/h 12.9 km/h 42 % 0 mm 388.0 W/m2 CLR
16:19 -5.1 °C -12.6 °C 33843.1 hPa NW 29.8 km/h 29.8 km/h 42 % 0 mm 438.0 W/m2 CLR
16:24 -4.8 °C -12.4 °C 33832.9 hPa NNW 9 km/h 9 km/h 42 % 0 mm 965.0 W/m2 CLR
16:29 -4.7 °C -12.1 °C 33832.9 hPa NW 29.8 km/h 29.8 km/h 43 % 0 mm 330.0 W/m2 CLR
16:34 -4.8 °C -12.6 °C 33843.1 hPa NW 41.7 km/h 41.7 km/h 41 % 0 mm 1014.0 W/m2 CLR
16:39 -4.8 °C -12.4 °C 33832.9 hPa WNW 29.8 km/h 29.8 km/h 42 % 0 mm 1062.0 W/m2 CLR
16:44 -4.8 °C -12.9 °C 33832.9 hPa WNW 29.8 km/h 29.8 km/h 39 % 0 mm 320.0 W/m2 CLR
16:49 -4.8 °C -12.6 °C 33832.9 hPa WNW 12.9 km/h 12.9 km/h 41 % 0 mm 962.0 W/m2 CLR
16:54 -4.5 °C -12.7 °C 33832.9 hPa NW 32.8 km/h 32.8 km/h 39 % 0 mm 874.0 W/m2 CLR
16:59 -4.5 °C -12.9 °C 33832.9 hPa West 11.9 km/h 11.9 km/h 38 % 0 mm 951.0 W/m2 CLR
17:04 -4.5 °C -12.3 °C 33832.9 hPa NNW 29.8 km/h 29.8 km/h 41 % 0 mm 531.0 W/m2 CLR
17:09 -4.5 °C -12.3 °C 33832.9 hPa NW 29.8 km/h 29.8 km/h 41 % 0 mm 872.0 W/m2 CLR
17:14 -4.4 °C -12.7 °C 33832.9 hPa NW 33.6 km/h 33.6 km/h 39 % 0 mm 828.0 W/m2 CLR
17:19 -4.8 °C -12.8 °C 33843.1 hPa NW 23.8 km/h 23.8 km/h 40 % 0 mm 225.0 W/m2 CLR
17:24 -4.9 °C -12.7 °C 33843.1 hPa NNW 20.8 km/h 20.8 km/h 41 % 0 mm 155.0 W/m2 CLR
17:29 -5.1 °C -12.8 °C 33843.1 hPa West 9 km/h 9 km/h 41 % 0 mm 185.0 W/m2 CLR
17:34 -5.1 °C -12.7 °C 33843.1 hPa NW 9 km/h 9 km/h 42 % 0 mm 148.0 W/m2 CLR
17:39 -5.1 °C -12.7 °C 33843.1 hPa NW 12.9 km/h 12.9 km/h 42 % 0 mm 146.0 W/m2 CLR
17:44 -5.2 °C -13.2 °C 33843.1 hPa NNW 29.8 km/h 29.8 km/h 40 % 0 mm 113.0 W/m2 CLR
17:49 -5.3 °C -12.8 °C 33843.1 hPa NNW 28.5 km/h 28.5 km/h 42 % 0 mm 90.0 W/m2 CLR
17:54 -5.4 °C -12.7 °C 33843.1 hPa NW 29.8 km/h 29.8 km/h 43 % 0 mm 83.0 W/m2 CLR
17:59 -5.7 °C -12.8 °C 33843.1 hPa North 32.8 km/h 32.8 km/h 44 % 0 mm 142.0 W/m2 CLR
18:04 -5.8 °C -12.6 °C 33856.6 hPa NNW 32.8 km/h 32.8 km/h 46 % 0 mm 230.0 W/m2 CLR
18:05 -5.9 °C -12.6 °C 33856.6 hPa North 32.8 km/h 32.8 km/h 46 % 0 mm 230.0 W/m2 CLR
18:10 -5.8 °C -12.6 °C 33843.1 hPa NNW 23.8 km/h 23.8 km/h 46 % 0 mm 341.0 W/m2 CLR
18:15 -5.5 °C -12.1 °C 33843.1 hPa NNW 5.1 km/h 5.1 km/h 47 % 0 mm 605.0 W/m2 CLR
18:20 -5.2 °C -12.6 °C 33843.1 hPa Calm     43 % 0 mm 149.0 W/m2 CLR
18:25 -5.1 °C -12.4 °C 33843.1 hPa Calm     43 % 0 mm 151.0 W/m2 CLR
18:30 -5.1 °C -12.4 °C 33843.1 hPa Calm     43 % 0 mm 186.0 W/m2 CLR
18:35 -5.1 °C -12.6 °C 33843.1 hPa Calm   1 km/h 42 % 0 mm 504.0 W/m2 CLR
18:40 -4.9 °C -12.9 °C 33843.1 hPa Calm     40 % 0 mm 193.0 W/m2 CLR
18:45 -4.9 °C -12.9 °C 33843.1 hPa NNW 12.9 km/h 12.9 km/h 40 % 0 mm 392.0 W/m2 CLR
18:55 -4.5 °C -12.7 °C 33832.9 hPa Calm     39 % 0 mm 450.0 W/m2 CLR
19:00 -4.3 °C -12.7 °C 33843.1 hPa WSW 18.2 km/h 18.2 km/h 38 % 0 mm 443.0 W/m2 CLR
19:05 -4.3 °C -13.4 °C 33843.1 hPa West 20.9 km/h 20.9 km/h 35 % 0 mm 301.0 W/m2 CLR
19:10 -4.4 °C -13.5 °C 33843.1 hPa SW 11.9 km/h 11.9 km/h 35 % 0 mm 343.0 W/m2 CLR
19:15 -4.3 °C -13.2 °C 33843.1 hPa West 49.2 km/h 49.2 km/h 36 % 0 mm 188.0 W/m2 CLR
19:20 -4.5 °C -13.6 °C 33843.1 hPa West 17.9 km/h 17.9 km/h 35 % 0 mm 294.0 W/m2 CLR
19:25 -4.5 °C -13.4 °C 33843.1 hPa WNW 36.2 km/h 36.2 km/h 36 % 0 mm 269.0 W/m2 CLR
19:30 -4.6 °C -13.5 °C 33832.9 hPa West 38.8 km/h 38.8 km/h 36 % 0 mm 70.0 W/m2 CLR
19:35 -4.8 °C -13.2 °C 33843.1 hPa WNW 38.8 km/h 38.8 km/h 38 % 0 mm 272.0 W/m2 CLR
19:40 -4.7 °C -13.1 °C 33843.1 hPa WNW 35.7 km/h 35.7 km/h 38 % 0 mm 229.0 W/m2 CLR
19:45 -4.8 °C -13.2 °C 33843.1 hPa NW 17.9 km/h 17.9 km/h 38 % 0 mm 141.0 W/m2 CLR
19:50 -4.9 °C -13.3 °C 33843.1 hPa WNW 26.9 km/h 26.9 km/h 38 % 0 mm 86.0 W/m2 CLR
19:55 -5.1 °C -13.7 °C 33843.1 hPa West 32.8 km/h 32.8 km/h 37 % 0 mm 63.0 W/m2 CLR
20:00 -5.2 °C -13.3 °C 33856.6 hPa WNW 29.8 km/h 29.8 km/h 39 % 0 mm 56.0 W/m2 FEW
20:05 -5.3 °C -13.2 °C 33856.6 hPa WNW 17.9 km/h 17.9 km/h 40 % 0 mm 47.0 W/m2 SCT
20:11 -5.4 °C -13.1 °C 33856.6 hPa WNW 10.3 km/h 10.3 km/h 41 % 0 mm 42.0 W/m2 BKN
20:16 -5.5 °C -13 °C 33856.6 hPa NW 6 km/h   42 % 0 mm 40.0 W/m2 SCT
20:21 -5.6 °C -13.1 °C 33856.6 hPa Calm     42 % 0 mm 28.0 W/m2 BKN
20:26 -5.6 °C -12.9 °C 33866.8 hPa Calm     43 % 0 mm 21.0 W/m2 BKN
20:31 -5.7 °C -12.8 °C 33866.8 hPa Calm     44 % 0 mm 14.0 W/m2 BKN
20:36 -5.7 °C -13.2 °C 33866.8 hPa Calm     42 % 0 mm 11.0 W/m2 BKN
20:41 -5.8 °C -12.9 °C 33880.3 hPa Calm     44 % 0 mm 11.0 W/m2 BKN
20:46 -5.8 °C -12.7 °C 33880.3 hPa Calm     45 % 0 mm 9.0 W/m2 BKN
20:51 -5.9 °C -12.7 °C 33880.3 hPa Calm     46 % 0 mm 7.0 W/m2 BKN
20:56 -6 °C -12.4 °C 33880.3 hPa Calm     48 % 0 mm 5.0 W/m2 OVC
20:57 -6.1 °C -12.6 °C 33880.3 hPa Calm     47 % 0 mm 5.0 W/m2 OVC
21:02 -6.2 °C -12.5 °C 33890.5 hPa Calm     48 % 0 mm 0.0 W/m2 OVC
21:07 -6.3 °C -12.6 °C 33890.5 hPa Calm     48 % 0 mm 0.0 W/m2 OVC
21:12 -6.3 °C -12.3 °C 33890.5 hPa Calm     50 % 0 mm 0.0 W/m2 OVC
21:17 -6.4 °C -12.4 °C 33890.5 hPa Calm     50 % 0 mm 0.0 W/m2 CLR
21:22 -6.5 °C -12.6 °C 33900.6 hPa Calm     49 % 0 mm 0.0 W/m2 CLR
21:27 -6.5 °C -12.8 °C 33900.6 hPa Calm     48 % 0 mm 0.0 W/m2 CLR
21:32 -6.5 °C -12.8 °C 33900.6 hPa Calm     48 % 0 mm 0.0 W/m2 CLR
21:33 -6.5 °C -12.3 °C 33900.6 hPa Calm     51 % 0 mm 0.0 W/m2 CLR
21:38 -6.6 °C -13 °C 33914.2 hPa WNW 23.8 km/h 23.8 km/h 47 % 0 mm 0.0 W/m2 CLR
21:43 -6.4 °C -13.1 °C 33914.2 hPa NW 20.9 km/h 20.9 km/h 46 % 0 mm 0.0 W/m2 CLR
21:48 -6.3 °C -13 °C 33924.3 hPa WNW 17.9 km/h 17.9 km/h 46 % 0 mm 0.0 W/m2 CLR
21:53 -6.4 °C -12.9 °C 33924.3 hPa WNW 11.9 km/h 11.9 km/h 47 % 0 mm 0.0 W/m2 CLR
21:58 -6.5 °C -12.8 °C 33924.3 hPa NW 9 km/h 9 km/h 48 % 0 mm 0.0 W/m2 CLR
22:03 -6.6 °C -13 °C 33924.3 hPa WNW 9 km/h 9.3 km/h 47 % 0 mm 0.0 W/m2 CLR
22:05 -6.6 °C -13 °C 33924.3 hPa WNW 11.9 km/h 11.9 km/h 47 % 0 mm 0.0 W/m2 CLR
22:10 -6.6 °C -12.9 °C 33937.9 hPa WNW 9 km/h 9 km/h 48 % 0 mm 0.0 W/m2 CLR
22:15 -6.7 °C -13.2 °C 33937.9 hPa NW 15 km/h 15 km/h 47 % 0 mm 0.0 W/m2 CLR
22:20 -6.7 °C -13.2 °C 33937.9 hPa WNW 20.9 km/h 20.9 km/h 47 % 0 mm 0.0 W/m2 CLR
22:25 -6.7 °C -12.9 °C 33937.9 hPa WNW 17.9 km/h 17.9 km/h 49 % 0 mm 0.0 W/m2 CLR
22:30 -6.7 °C -13.4 °C 33937.9 hPa WNW 44.7 km/h 44.7 km/h 46 % 0 mm 0.0 W/m2 CLR
22:35 -6.6 °C -13.3 °C 33948 hPa WNW 49.2 km/h 49.2 km/h 46 % 0 mm 0.0 W/m2 CLR
22:40 -6.6 °C -13.2 °C 33948 hPa WNW 38.8 km/h 38.8 km/h 46 % 0 mm 0.0 W/m2 CLR
22:45 -6.6 °C -13.3 °C 33948 hPa WNW 41.7 km/h 41.7 km/h 46 % 0 mm 0.0 W/m2 CLR
22:50 -6.6 °C -13.5 °C 33948 hPa West 44.7 km/h 44.7 km/h 45 % 0 mm 0.0 W/m2 CLR
22:55 -6.7 °C -13.4 °C 33948 hPa NW 50.7 km/h 50.7 km/h 46 % 0 mm 0.0 W/m2 CLR
23:00 -6.7 °C -13.6 °C 33958.2 hPa WNW 44.7 km/h 44.7 km/h 45 % 0 mm 0.0 W/m2 CLR
23:05 -6.8 °C -13.4 °C 33958.2 hPa West 35.7 km/h 35.7 km/h 46 % 0 mm 0.0 W/m2 CLR
23:10 -6.8 °C -13.4 °C 33958.2 hPa West 38.8 km/h 38.8 km/h 46 % 0 mm 0.0 W/m2 CLR
23:15 -6.8 °C -13.4 °C 33958.2 hPa WNW 44.7 km/h 44.7 km/h 46 % 0 mm 0.0 W/m2 CLR
23:20 -6.8 °C -13.4 °C 33958.2 hPa West 38.8 km/h 38.8 km/h 46 % 0 mm 0.0 W/m2 CLR
23:25 -6.8 °C -13.5 °C 33958.2 hPa West 29.8 km/h 29.8 km/h 46 % 0 mm 0.0 W/m2 CLR
23:30 -6.9 °C -13.4 °C 33958.2 hPa West 32.8 km/h 32.8 km/h 47 % 0 mm 0.0 W/m2 CLR
23:35 -7 °C -13.4 °C 33958.2 hPa West 29.8 km/h 29.8 km/h 47 % 0 mm 0.0 W/m2 CLR
23:40 -7 °C -13.4 °C 33958.2 hPa West 36.2 km/h 36.2 km/h 47 % 0 mm 0.0 W/m2 CLR
23:45 -7.1 °C -13.7 °C 33971.7 hPa West 41.7 km/h 41.7 km/h 46 % 0 mm 0.0 W/m2 CLR
23:50 -7.1 °C -13.5 °C 33958.2 hPa West 47.6 km/h 47.6 km/h 47 % 0 mm 0.0 W/m2 CLR
23:55 -7.1 °C -13.6 °C 33971.7 hPa West 50.7 km/h 50.7 km/h 47 % 0 mm 0.0 W/m2 CLR
Lo Temps de Massalio
Compliments of Weather Underground - 1.25 mb